Time;durP1;ratioP1;P1;durP2;ratioP2;P2;SDS_P1;SDS_P2;PMS_P1;PMS_P2;Temp;Humidity;BMP_temperature;BMP_pressure;BME280_temperature;BME280_humidity;BME280_pressure;Samples;Min_cycle;Max_cycle;Signal;HPM_P1;HPM_P2
2023/09/07 00:02:15;;;;;;;0.33;0.33;;;19.20;99.90;;;;;;5043209;28;20033;-66
2023/09/07 00:04:42;;;;;;;0.43;0.43;;;19.20;99.90;;;;;;5036549;28;20032;-66
2023/09/07 00:07:09;;;;;;;0.17;0.17;;;19.20;99.90;;;;;;5027979;28;20038;-66
2023/09/07 00:09:34;;;;;;;2.17;0.63;;;19.20;99.90;;;;;;5048325;28;20037;-67
2023/09/07 00:12:00;;;;;;;0.27;0.27;;;19.10;99.90;;;;;;5045087;28;20443;-66
2023/09/07 00:14:26;;;;;;;0.55;0.55;;;19.00;99.90;;;;;;5040505;28;20017;-66
2023/09/07 00:16:52;;;;;;;1.33;0.67;;;19.00;99.90;;;;;;5029526;28;20045;-66
2023/09/07 00:19:17;;;;;;;1.30;0.87;;;19.00;99.90;;;;;;5047013;28;20074;-66
2023/09/07 00:21:43;;;;;;;0.20;0.20;;;18.90;99.90;;;;;;5037344;28;20037;-66
2023/09/07 00:24:10;;;;;;;0.40;0.33;;;18.90;99.90;;;;;;5038694;28;20037;-66
2023/09/07 00:26:35;;;;;;;;;;;18.90;99.90;;;;;;5031922;28;20601;-66
2023/09/07 00:29:01;;;;;;;0.30;0.30;;;18.80;99.90;;;;;;5036912;28;19913;-66
2023/09/07 00:31:27;;;;;;;1.50;0.50;;;18.80;99.90;;;;;;5039620;28;20056;-66
2023/09/07 00:33:53;;;;;;;0.20;0.20;;;18.80;99.90;;;;;;5051603;28;20017;-66
2023/09/07 00:36:19;;;;;;;0.60;0.60;;;18.80;99.90;;;;;;5032814;28;20021;-66
2023/09/07 00:38:45;;;;;;;1.60;0.40;;;18.80;99.90;;;;;;5023061;28;20030;-66
2023/09/07 00:41:13;;;;;;;3.20;1.40;;;18.70;99.90;;;;;;5029540;28;20033;-66
2023/09/07 00:43:40;;;;;;;0.35;0.20;;;18.70;99.90;;;;;;5039458;28;20029;-67
2023/09/07 00:46:06;;;;;;;0.40;0.40;;;18.70;99.90;;;;;;5040862;28;20036;-66
2023/09/07 00:48:33;;;;;;;0.65;0.65;;;18.70;99.90;;;;;;5025858;28;20156;-66
2023/09/07 00:50:59;;;;;;;;;;;18.80;99.90;;;;;;5036394;28;20033;-66
2023/09/07 00:53:27;;;;;;;0.32;0.32;;;18.70;99.90;;;;;;5048979;28;19913;-67
2023/09/07 00:55:55;;;;;;;0.35;0.35;;;18.80;99.90;;;;;;5048805;28;20032;-66
2023/09/07 00:58:21;;;;;;;1.77;0.80;;;18.70;99.90;;;;;;5030803;28;20085;-66
2023/09/07 01:00:48;;;;;;;0.30;0.30;;;18.70;99.90;;;;;;5032577;28;20030;-66
2023/09/07 01:03:14;;;;;;;;;;;18.70;99.90;;;;;;5027410;28;20065;-66
2023/09/07 01:05:51;;;;;;;0.45;0.40;;;18.70;99.90;;;;;;5041671;28;19963;-66
2023/09/07 01:08:27;;;;;;;1.02;0.63;;;18.70;99.90;;;;;;5051876;28;20056;-66
2023/09/07 01:10:53;;;;;;;0.63;0.63;;;18.70;99.90;;;;;;5052037;28;20036;-66
2023/09/07 01:13:20;;;;;;;0.38;0.38;;;18.70;99.90;;;;;;5045797;28;20025;-66
2023/09/07 01:15:47;;;;;;;0.20;0.13;;;18.70;99.90;;;;;;5034020;28;20360;-76
2023/09/07 01:18:14;;;;;;;0.15;0.15;;;18.70;99.90;;;;;;5022975;28;20093;-66
2023/09/07 01:20:42;;;;;;;0.43;0.43;;;18.60;99.90;;;;;;5035173;28;20044;-66
2023/09/07 01:23:09;;;;;;;0.30;0.30;;;18.60;99.90;;;;;;5033217;28;20112;-66
2023/09/07 01:25:35;;;;;;;0.60;0.52;;;18.70;99.90;;;;;;4983100;28;1406652;-66
2023/09/07 01:28:01;;;;;;;0.30;0.30;;;18.60;99.90;;;;;;5038644;28;20075;-66
2023/09/07 01:30:28;;;;;;;0.20;0.20;;;18.60;99.90;;;;;;5049887;28;20025;-66
2023/09/07 01:32:54;;;;;;;0.65;0.47;;;18.60;99.90;;;;;;5042020;28;20022;-66
2023/09/07 01:35:21;;;;;;;0.17;0.17;;;18.60;99.90;;;;;;5036999;28;20025;-67
2023/09/07 01:37:50;;;;;;;0.30;0.30;;;18.50;99.90;;;;;;5050332;28;20028;-66
2023/09/07 01:40:16;;;;;;;0.75;0.70;;;18.50;99.90;;;;;;5041320;28;20025;-66
2023/09/07 01:42:41;;;;;;;0.32;0.22;;;18.50;99.90;;;;;;5042980;28;20032;-66
2023/09/07 01:45:08;;;;;;;0.20;0.20;;;18.50;99.90;;;;;;5039998;28;20031;-67
2023/09/07 01:47:34;;;;;;;5.50;1.73;;;18.50;99.90;;;;;;5043522;28;20140;-66
2023/09/07 01:49:59;;;;;;;0.20;0.20;;;18.50;99.90;;;;;;5030792;28;20116;-66
2023/09/07 01:52:25;;;;;;;0.87;0.63;;;18.50;99.90;;;;;;5034827;28;20052;-66
2023/09/07 01:54:51;;;;;;;0.43;0.43;;;18.50;99.90;;;;;;5034881;28;20080;-66
2023/09/07 01:57:17;;;;;;;0.88;0.65;;;18.50;99.90;;;;;;5035717;28;20018;-66
2023/09/07 01:59:43;;;;;;;0.30;0.30;;;18.50;99.90;;;;;;5031563;28;20044;-66
2023/09/07 02:02:09;;;;;;;0.17;0.17;;;18.50;99.90;;;;;;5033586;28;20357;-66
2023/09/07 02:04:34;;;;;;;0.30;0.30;;;18.50;99.90;;;;;;5033203;28;20118;-67
2023/09/07 02:07:00;;;;;;;14.53;1.53;;;18.50;99.90;;;;;;5035588;28;20025;-66
2023/09/07 02:09:25;;;;;;;1.00;1.00;;;18.50;99.90;;;;;;5033401;28;20472;-66
2023/09/07 02:11:51;;;;;;;0.47;0.47;;;18.40;99.90;;;;;;5033765;28;20095;-66
2023/09/07 02:14:17;;;;;;;0.50;0.50;;;18.40;99.90;;;;;;5034057;28;20450;-66
2023/09/07 02:16:42;;;;;;;0.40;0.40;;;18.40;99.90;;;;;;5023521;28;20021;-66
2023/09/07 02:19:08;;;;;;;0.10;0.10;;;18.30;99.90;;;;;;5029252;28;20022;-66
2023/09/07 02:21:34;;;;;;;0.00;0.00;;;18.40;99.90;;;;;;5030059;28;20084;-66
2023/09/07 02:24:00;;;;;;;0.27;0.27;;;18.30;99.90;;;;;;5024812;28;20080;-66
2023/09/07 02:26:26;;;;;;;0.38;0.35;;;18.30;99.90;;;;;;5033298;28;20049;-66
2023/09/07 02:28:51;;;;;;;0.30;0.30;;;18.30;99.90;;;;;;5032152;28;20425;-66
2023/09/07 02:31:17;;;;;;;0.27;0.27;;;18.30;99.90;;;;;;5028602;28;20105;-66
2023/09/07 02:33:43;;;;;;;0.23;0.20;;;18.30;99.90;;;;;;5034712;28;20040;-66
2023/09/07 02:36:09;;;;;;;0.57;0.43;;;18.30;99.90;;;;;;5034974;28;20026;-66
2023/09/07 02:38:34;;;;;;;0.40;0.40;;;18.20;99.90;;;;;;5034179;28;20026;-66
2023/09/07 02:41:01;;;;;;;3.77;0.33;;;18.20;99.90;;;;;;5032931;28;20328;-66
2023/09/07 02:43:27;;;;;;;0.10;0.10;;;18.20;99.90;;;;;;5028593;28;20117;-66
2023/09/07 02:45:53;;;;;;;0.38;0.30;;;18.20;99.90;;;;;;5034832;28;20509;-66
2023/09/07 02:48:19;;;;;;;1.70;0.50;;;18.10;99.90;;;;;;5035125;28;20037;-67
2023/09/07 02:50:48;;;;;;;0.77;0.60;;;18.10;99.90;;;;;;5032391;28;20361;-66
2023/09/07 02:53:14;;;;;;;0.50;0.50;;;18.10;99.90;;;;;;5033394;28;20056;-66
2023/09/07 02:55:40;;;;;;;0.40;0.40;;;18.10;99.90;;;;;;5033866;28;20049;-66
2023/09/07 02:58:06;;;;;;;0.53;0.37;;;18.10;99.90;;;;;;5033280;28;20041;-66
2023/09/07 03:00:31;;;;;;;0.50;0.50;;;18.10;99.90;;;;;;5033429;28;20033;-66
2023/09/07 03:02:58;;;;;;;1.30;0.57;;;18.10;99.90;;;;;;5034537;28;20060;-66
2023/09/07 03:05:28;;;;;;;2.17;1.25;;;18.10;99.90;;;;;;5034821;28;20033;-66
2023/09/07 03:07:54;;;;;;;1.42;0.35;;;18.00;99.90;;;;;;5032611;28;20037;-66
2023/09/07 03:10:19;;;;;;;0.32;0.32;;;18.00;99.90;;;;;;5032012;28;20519;-66
2023/09/07 03:12:45;;;;;;;0.27;0.27;;;18.00;99.90;;;;;;5033588;28;20167;-66
2023/09/07 03:15:12;;;;;;;0.00;0.00;;;17.90;99.90;;;;;;5033414;28;20108;-66
2023/09/07 03:17:38;;;;;;;0.35;0.35;;;17.90;99.90;;;;;;5029645;28;20026;-66
2023/09/07 03:20:16;;;;;;;0.65;0.63;;;17.80;99.90;;;;;;5026366;28;20044;-66
2023/09/07 03:22:46;;;;;;;0.40;0.40;;;17.80;99.90;;;;;;5025482;28;20052;-67
2023/09/07 03:25:13;;;;;;;2.35;0.80;;;17.80;99.90;;;;;;5034328;28;20179;-66
2023/09/07 03:27:38;;;;;;;;;;;17.80;99.90;;;;;;5034006;28;20040;-66
2023/09/07 03:30:05;;;;;;;0.30;0.30;;;17.80;99.90;;;;;;5030954;28;20362;-66
2023/09/07 03:32:33;;;;;;;0.60;0.60;;;17.80;99.90;;;;;;5027039;28;20026;-66
2023/09/07 03:35:08;;;;;;;0.32;0.32;;;17.70;99.90;;;;;;5033449;28;20370;-67
2023/09/07 03:37:35;;;;;;;0.82;0.82;;;17.70;99.90;;;;;;5032970;28;20029;-66
2023/09/07 03:40:01;;;;;;;1.00;1.00;;;17.70;99.90;;;;;;5027226;28;20029;-66
2023/09/07 03:42:26;;;;;;;0.70;0.53;;;17.70;99.90;;;;;;5034243;28;20040;-67
2023/09/07 03:44:52;;;;;;;0.30;0.30;;;17.70;99.90;;;;;;5033502;28;20031;-66
2023/09/07 03:47:18;;;;;;;0.50;0.50;;;17.70;99.90;;;;;;5034376;28;20029;-66
2023/09/07 03:49:44;;;;;;;1.10;0.87;;;17.70;99.90;;;;;;5030679;28;20530;-66
2023/09/07 03:52:11;;;;;;;0.68;0.57;;;17.70;99.90;;;;;;5033787;28;20041;-66
2023/09/07 03:54:37;;;;;;;0.98;0.60;;;17.60;99.90;;;;;;5031480;28;20060;-66
2023/09/07 03:57:03;;;;;;;0.55;0.22;;;17.60;99.90;;;;;;5033357;28;20065;-66
2023/09/07 03:59:29;;;;;;;0.40;0.40;;;17.60;99.90;;;;;;5033604;28;20040;-66
2023/09/07 04:01:55;;;;;;;0.52;0.52;;;17.50;99.90;;;;;;5033944;28;20043;-66
2023/09/07 04:04:21;;;;;;;0.90;0.83;;;17.50;99.90;;;;;;5033442;28;20104;-66
2023/09/07 04:06:50;;;;;;;2.28;0.63;;;17.50;99.90;;;;;;5033719;28;20355;-66
2023/09/07 04:09:16;;;;;;;0.50;0.50;;;17.40;99.90;;;;;;5031725;28;20053;-67
2023/09/07 04:11:41;;;;;;;0.23;0.23;;;17.40;99.90;;;;;;5025441;28;20072;-66
2023/09/07 04:14:07;;;;;;;0.60;0.60;;;17.40;99.90;;;;;;5033296;28;20029;-66
2023/09/07 04:16:33;;;;;;;0.30;0.30;;;17.40;99.90;;;;;;5036167;28;20076;-66
2023/09/07 04:18:59;;;;;;;0.57;0.33;;;17.30;99.90;;;;;;5037544;28;20032;-66
2023/09/07 04:21:24;;;;;;;0.60;0.60;;;17.30;99.90;;;;;;5035365;28;20079;-66
2023/09/07 04:23:50;;;;;;;1.20;0.40;;;17.30;99.90;;;;;;5034663;28;20433;-66
2023/09/07 04:26:16;;;;;;;0.30;0.30;;;17.30;99.90;;;;;;5036774;28;20061;-66
2023/09/07 04:28:41;;;;;;;1.43;0.57;;;17.20;99.90;;;;;;5037399;28;20040;-66
2023/09/07 04:31:07;;;;;;;0.83;0.30;;;17.20;99.90;;;;;;5035726;28;20052;-66
2023/09/07 04:33:34;;;;;;;0.47;0.40;;;17.20;99.90;;;;;;5037381;28;20025;-66
2023/09/07 04:36:13;;;;;;;2.85;0.55;;;17.10;99.90;;;;;;5037269;28;20171;-66
2023/09/07 04:38:40;;;;;;;0.95;0.95;;;17.10;99.90;;;;;;5036964;28;20031;-66
2023/09/07 04:41:10;;;;;;;0.10;0.10;;;17.10;99.90;;;;;;5030742;28;20321;-66
2023/09/07 04:43:37;;;;;;;2.10;0.45;;;17.10;99.90;;;;;;5036266;28;20417;-67
2023/09/07 04:46:03;;;;;;;0.70;0.70;;;17.10;99.90;;;;;;5037442;28;20030;-66
2023/09/07 04:48:29;;;;;;;0.88;0.68;;;17.10;99.90;;;;;;5036641;28;20025;-66
2023/09/07 04:51:05;;;;;;;2.43;0.80;;;17.10;99.90;;;;;;5036455;28;20325;-66
2023/09/07 04:53:33;;;;;;;0.57;0.57;;;17.10;99.90;;;;;;5036667;28;20310;-66
2023/09/07 04:55:59;;;;;;;2.10;0.57;;;17.10;99.90;;;;;;5035094;28;20026;-66
2023/09/07 04:58:25;;;;;;;0.30;0.30;;;17.00;99.90;;;;;;5035913;28;20109;-66
2023/09/07 05:00:51;;;;;;;3.63;1.00;;;17.10;99.90;;;;;;5037394;28;20103;-66
2023/09/07 05:03:17;;;;;;;0.70;0.70;;;17.10;99.90;;;;;;5035424;28;20417;-68
2023/09/07 05:05:43;;;;;;;1.03;0.70;;;17.10;99.90;;;;;;5036165;28;20035;-66
2023/09/07 05:08:10;;;;;;;3.83;1.45;;;17.10;99.90;;;;;;5036813;28;20108;-66
2023/09/07 05:10:37;;;;;;;0.93;0.73;;;17.00;99.90;;;;;;5037602;28;20030;-66
2023/09/07 05:13:03;;;;;;;0.63;0.50;;;17.00;99.90;;;;;;5034156;28;20329;-66
2023/09/07 05:15:29;;;;;;;5.03;0.98;;;17.00;99.90;;;;;;5031203;28;20025;-66
2023/09/07 05:17:54;;;;;;;0.67;0.50;;;17.00;99.90;;;;;;5035914;28;20080;-66
2023/09/07 05:20:21;;;;;;;0.87;0.53;;;16.90;99.90;;;;;;5035133;28;20045;-66
2023/09/07 05:22:47;;;;;;;0.35;0.35;;;17.00;99.90;;;;;;5035057;28;20037;-66
2023/09/07 05:25:13;;;;;;;1.90;0.33;;;17.00;99.90;;;;;;5036165;28;20060;-66
2023/09/07 05:27:39;;;;;;;0.20;0.20;;;17.00;99.90;;;;;;5030999;28;20271;-66
2023/09/07 05:30:06;;;;;;;0.75;0.75;;;17.00;99.90;;;;;;5033304;28;20034;-66
2023/09/07 05:32:32;;;;;;;0.20;0.20;;;17.10;99.90;;;;;;5035649;28;20029;-66
2023/09/07 05:34:58;;;;;;;0.83;0.73;;;17.10;99.90;;;;;;5035640;28;20010;-66
2023/09/07 05:37:23;;;;;;;0.77;0.57;;;17.10;99.90;;;;;;5036014;28;20022;-66
2023/09/07 05:39:49;;;;;;;0.10;0.10;;;17.10;99.90;;;;;;5035181;28;20100;-66
2023/09/07 05:42:15;;;;;;;0.87;0.87;;;17.10;99.90;;;;;;5035836;28;20324;-66
2023/09/07 05:44:41;;;;;;;0.28;0.28;;;17.10;99.90;;;;;;5029583;28;20310;-66
2023/09/07 05:47:07;;;;;;;0.20;0.20;;;17.20;99.90;;;;;;5035402;28;20037;-66
2023/09/07 05:49:32;;;;;;;0.17;0.17;;;17.20;99.90;;;;;;5033535;28;20021;-66
2023/09/07 05:51:58;;;;;;;1.10;0.53;;;17.20;99.90;;;;;;5034961;28;20079;-66
2023/09/07 05:54:24;;;;;;;0.53;0.53;;;17.20;99.90;;;;;;5035747;28;20036;-66
2023/09/07 05:56:49;;;;;;;0.37;0.27;;;17.10;99.90;;;;;;5038185;28;20022;-66
2023/09/07 05:59:15;;;;;;;0.80;0.80;;;17.20;99.90;;;;;;5034687;28;20324;-66
2023/09/07 06:01:41;;;;;;;1.33;1.23;;;17.20;99.90;;;;;;5036771;28;20021;-66
2023/09/07 06:04:07;;;;;;;0.43;0.43;;;17.20;99.90;;;;;;5037579;28;20021;-67
2023/09/07 06:06:33;;;;;;;0.77;0.77;;;17.20;99.90;;;;;;5038623;28;20451;-66
2023/09/07 06:08:59;;;;;;;2.20;1.27;;;17.20;99.90;;;;;;5032748;28;20411;-66
2023/09/07 06:11:26;;;;;;;1.38;1.10;;;17.30;99.90;;;;;;5032653;28;20120;-66
2023/09/07 06:13:52;;;;;;;0.85;0.85;;;17.30;99.90;;;;;;5034486;28;20013;-66
2023/09/07 06:16:18;;;;;;;1.20;0.77;;;17.40;99.90;;;;;;5039347;28;20080;-66
2023/09/07 06:18:44;;;;;;;0.40;0.40;;;17.40;99.90;;;;;;5035086;28;20075;-66
2023/09/07 06:21:10;;;;;;;1.40;1.30;;;17.50;99.90;;;;;;5035672;28;20030;-66
2023/09/07 06:23:35;;;;;;;1.37;0.80;;;17.50;99.90;;;;;;5034610;28;20408;-67
2023/09/07 06:26:02;;;;;;;0.63;0.63;;;17.60;99.90;;;;;;5034523;28;20041;-67
2023/09/07 06:28:28;;;;;;;0.68;0.30;;;17.60;99.90;;;;;;5040318;28;20048;-66
2023/09/07 06:30:54;;;;;;;1.30;0.70;;;17.70;99.90;;;;;;5049754;28;20463;-67
2023/09/07 06:33:20;;;;;;;0.82;0.60;;;17.80;99.90;;;;;;5035991;28;20073;-67
2023/09/07 06:35:46;;;;;;;1.30;1.00;;;17.80;99.90;;;;;;5045454;28;20423;-67
2023/09/07 06:38:12;;;;;;;0.53;0.53;;;17.90;99.90;;;;;;5044847;28;20017;-66
2023/09/07 06:40:38;;;;;;;0.50;0.50;;;17.90;99.90;;;;;;5034492;28;20021;-68
2023/09/07 06:43:05;;;;;;;0.57;0.57;;;18.00;99.90;;;;;;5040198;28;20176;-66
2023/09/07 06:45:39;;;;;;;4.85;1.23;;;18.10;99.90;;;;;;5050703;28;20549;-66
2023/09/07 06:48:06;;;;;;;1.83;0.60;;;18.10;99.90;;;;;;5049680;28;20083;-66
2023/09/07 06:50:31;;;;;;;0.52;0.52;;;18.30;99.90;;;;;;5044283;28;20115;-66
2023/09/07 06:52:57;;;;;;;0.60;0.60;;;18.30;99.90;;;;;;5052723;28;20422;-66
2023/09/07 06:55:23;;;;;;;0.65;0.65;;;18.40;99.90;;;;;;5047848;28;20036;-66
2023/09/07 06:57:49;;;;;;;0.47;0.47;;;18.50;99.90;;;;;;5047669;28;20022;-66
2023/09/07 07:00:15;;;;;;;5.07;0.77;;;18.60;99.90;;;;;;5047515;28;20075;-66
2023/09/07 07:02:41;;;;;;;1.00;0.40;;;18.70;99.90;;;;;;5040245;28;20029;-66
2023/09/07 07:05:08;;;;;;;1.00;0.97;;;18.90;99.90;;;;;;5036739;28;20040;-67
2023/09/07 07:07:34;;;;;;;1.55;1.05;;;19.10;99.90;;;;;;5038956;28;20416;-66
2023/09/07 07:10:00;;;;;;;0.38;0.30;;;19.20;99.90;;;;;;5037675;28;20032;-66
2023/09/07 07:12:26;;;;;;;2.40;0.93;;;19.40;99.90;;;;;;5041770;28;20025;-66
2023/09/07 07:14:52;;;;;;;4.18;1.20;;;19.70;99.90;;;;;;5035788;28;20686;-67
2023/09/07 07:17:18;;;;;;;0.40;0.40;;;19.90;99.90;;;;;;5039131;28;20083;-67
2023/09/07 07:19:44;;;;;;;0.80;0.57;;;20.20;99.90;;;;;;5039263;28;20025;-67
2023/09/07 07:22:10;;;;;;;3.22;1.13;;;20.50;99.90;;;;;;5043603;28;20036;-75
2023/09/07 07:24:35;;;;;;;0.30;0.30;;;20.80;99.90;;;;;;5042161;28;20061;-67
2023/09/07 07:27:03;;;;;;;0.43;0.43;;;21.10;99.90;;;;;;5031065;28;20084;-67
2023/09/07 07:29:29;;;;;;;0.73;0.30;;;21.30;99.90;;;;;;5032659;28;20022;-66
2023/09/07 07:31:55;;;;;;;0.70;0.35;;;21.50;99.90;;;;;;5047429;28;20032;-75
2023/09/07 07:34:21;;;;;;;0.20;0.20;;;21.70;99.90;;;;;;5030089;28;20376;-67
2023/09/07 07:36:46;;;;;;;1.10;1.00;;;21.90;99.90;;;;;;5033549;28;20075;-67
2023/09/07 07:39:12;;;;;;;0.20;0.20;;;22.10;99.90;;;;;;5036296;28;20436;-67
2023/09/07 07:41:38;;;;;;;1.10;0.98;;;22.40;99.90;;;;;;5035176;28;20018;-67
2023/09/07 07:44:04;;;;;;;0.68;0.57;;;22.60;99.90;;;;;;5038155;28;20032;-67
2023/09/07 07:46:30;;;;;;;0.20;0.20;;;22.90;99.90;;;;;;5040817;28;20112;-67
2023/09/07 07:48:56;;;;;;;0.30;0.30;;;23.10;99.90;;;;;;5039688;28;20045;-76
2023/09/07 07:51:22;;;;;;;0.20;0.20;;;23.40;99.90;;;;;;5039728;28;20278;-67
2023/09/07 07:53:48;;;;;;;0.30;0.30;;;23.50;99.90;;;;;;5045952;28;20064;-67
2023/09/07 07:56:18;;;;;;;2.03;0.95;;;23.60;99.90;;;;;;5043267;28;20498;-67
2023/09/07 07:58:47;;;;;;;0.55;0.47;;;23.80;99.90;;;;;;5031079;28;20101;-67
2023/09/07 08:01:17;;;;;;;1.15;0.70;;;23.80;99.90;;;;;;5033686;28;20021;-67
2023/09/07 08:03:43;;;;;;;15.90;1.30;;;23.90;99.90;;;;;;5043905;28;20029;-67
2023/09/07 08:06:10;;;;;;;6.72;1.65;;;24.00;99.90;;;;;;5042604;28;20028;-68
2023/09/07 08:08:36;;;;;;;0.57;0.43;;;24.00;99.90;;;;;;5054864;28;20029;-68
2023/09/07 08:11:05;;;;;;;0.73;0.68;;;24.20;99.90;;;;;;5048806;28;20030;-67
2023/09/07 08:13:35;;;;;;;1.38;0.65;;;24.30;99.90;;;;;;5035831;28;20037;-76
2023/09/07 08:16:04;;;;;;;1.42;0.20;;;24.50;99.90;;;;;;5036352;28;20109;-67
2023/09/07 08:18:32;;;;;;;0.70;0.65;;;24.70;99.90;;;;;;5037784;28;20029;-67
2023/09/07 08:20:58;;;;;;;0.60;0.52;;;24.90;99.90;;;;;;5036843;28;20013;-68
2023/09/07 08:23:24;;;;;;;0.30;0.30;;;24.90;99.90;;;;;;5036278;28;20026;-67
2023/09/07 08:25:54;;;;;;;1.02;0.70;;;24.90;99.90;;;;;;5037694;28;20122;-67
2023/09/07 08:28:22;;;;;;;0.57;0.50;;;25.00;99.90;;;;;;5035883;28;20040;-66
2023/09/07 08:30:50;;;;;;;5.05;0.82;;;25.00;99.90;;;;;;5033585;28;20025;-67
2023/09/07 08:33:17;;;;;;;0.95;0.68;;;25.20;99.90;;;;;;5032891;28;20033;-67
2023/09/07 08:35:43;;;;;;;;;;;25.30;99.90;;;;;;5034307;28;20025;-67
2023/09/07 08:38:13;;;;;;;0.55;0.30;;;25.30;99.90;;;;;;5036517;28;20204;-67
2023/09/07 08:40:42;;;;;;;0.25;0.25;;;25.50;99.90;;;;;;5037061;28;20413;-67
2023/09/07 08:43:11;;;;;;;1.13;1.08;;;25.50;99.90;;;;;;5035268;28;20025;-67
2023/09/07 08:45:43;;;;;;;0.52;0.43;;;25.50;99.90;;;;;;5033182;28;20029;-68
2023/09/07 08:48:12;;;;;;;0.43;0.40;;;25.50;99.90;;;;;;5035464;28;20120;-67
2023/09/07 08:50:38;;;;;;;0.50;0.40;;;25.60;99.90;;;;;;5037040;28;20021;-67
2023/09/07 08:53:04;;;;;;;4.65;0.45;;;25.70;99.90;;;;;;5031849;28;20025;-67
2023/09/07 08:55:31;;;;;;;1.15;1.05;;;25.70;99.90;;;;;;5036003;28;20030;-67
2023/09/07 08:57:56;;;;;;;;;;;25.90;99.90;;;;;;5034949;28;20025;-66
2023/09/07 09:00:23;;;;;;;;;;;26.00;99.90;;;;;;5022509;28;19951;-77
2023/09/07 09:02:49;;;;;;;0.45;0.30;;;26.20;99.90;;;;;;5034803;28;20292;-67
2023/09/07 09:05:18;;;;;;;0.20;0.20;;;26.20;99.90;;;;;;5036393;28;20340;-67
2023/09/07 09:07:43;;;;;;;0.47;0.47;;;26.20;99.90;;;;;;5036333;28;20036;-67
2023/09/07 09:10:10;;;;;;;0.30;0.30;;;26.20;99.90;;;;;;5033931;28;20033;-67
2023/09/07 09:12:44;;;;;;;;;;;26.30;99.90;;;;;;5036562;28;20316;-66
2023/09/07 09:15:10;;;;;;;2.75;1.63;;;26.30;99.90;;;;;;5030922;28;19920;-67
2023/09/07 09:17:35;;;;;;;1.63;0.80;;;26.20;99.90;;;;;;5032903;28;20017;-67
2023/09/07 09:20:05;;;;;;;1.85;0.45;;;26.20;99.90;;;;;;5040161;28;20056;-67
2023/09/07 09:22:31;;;;;;;1.13;1.00;;;26.30;99.90;;;;;;5040721;28;20123;-67
2023/09/07 09:24:57;;;;;;;0.77;0.77;;;26.30;99.90;;;;;;5048655;28;20179;-70
2023/09/07 09:27:23;;;;;;;0.45;0.35;;;26.30;99.90;;;;;;5048361;28;20028;-68
2023/09/07 09:29:50;;;;;;;1.13;0.45;;;26.30;99.90;;;;;;5036374;28;20032;-67
2023/09/07 09:32:16;;;;;;;0.50;0.50;;;26.40;99.90;;;;;;5039953;28;20120;-67
2023/09/07 09:34:44;;;;;;;0.70;0.63;;;26.60;99.90;;;;;;5037073;28;20092;-68
2023/09/07 09:37:18;;;;;;;1.17;0.90;;;26.80;99.90;;;;;;5041223;28;20025;-74
2023/09/07 09:39:49;;;;;;;0.38;0.30;;;27.00;99.90;;;;;;5035475;28;20098;-67
2023/09/07 09:42:16;;;;;;;0.60;0.60;;;27.10;99.90;;;;;;5030975;28;20041;-68
2023/09/07 09:44:44;;;;;;;0.52;0.52;;;27.00;99.90;;;;;;5029900;28;20072;-67
2023/09/07 09:47:11;;;;;;;1.02;1.02;;;27.00;99.90;;;;;;5035699;28;20029;-67
2023/09/07 09:49:38;;;;;;;0.30;0.30;;;26.90;99.90;;;;;;5035981;28;20095;-68
2023/09/07 09:52:04;;;;;;;2.40;0.38;;;27.00;99.90;;;;;;5032065;28;20107;-68
2023/09/07 09:54:32;;;;;;;0.30;0.30;;;27.20;99.90;;;;;;5032257;28;20039;-67
2023/09/07 09:56:58;;;;;;;3.00;0.68;;;27.30;99.90;;;;;;5032705;28;20022;-76
2023/09/07 09:59:24;;;;;;;2.42;0.63;;;27.40;99.90;;;;;;5035381;28;20018;-67
2023/09/07 10:01:50;;;;;;;1.85;1.13;;;27.40;99.90;;;;;;5035723;28;20030;-68
2023/09/07 10:04:17;;;;;;;1.30;0.80;;;27.60;99.90;;;;;;5033909;28;20409;-67
2023/09/07 10:07:05;;;;;;;0.95;0.25;;;27.70;99.90;;;;;;5033283;28;20112;-67
2023/09/07 10:09:36;;;;;;;0.30;0.30;;;27.90;99.90;;;;;;5035440;28;20032;-68
2023/09/07 10:12:04;;;;;;;3.35;0.30;;;28.10;99.90;;;;;;5029841;28;20416;-68
2023/09/07 10:14:40;;;;;;;1.27;0.47;;;28.20;99.90;;;;;;5034005;28;20060;-67
2023/09/07 10:17:06;;;;;;;1.75;0.73;;;28.20;99.90;;;;;;5033459;28;20025;-67
2023/09/07 10:19:32;;;;;;;1.75;0.68;;;28.30;99.90;;;;;;5037691;28;20379;-68
2023/09/07 10:21:57;;;;;;;1.45;0.40;;;28.20;99.90;;;;;;5035103;28;20025;-68
2023/09/07 10:24:35;;;;;;;0.70;0.40;;;28.20;99.90;;;;;;5027525;28;20037;-68
2023/09/07 10:27:08;;;;;;;0.43;0.40;;;28.20;99.90;;;;;;5032954;28;20065;-68
2023/09/07 10:29:53;;;;;;;1.75;0.73;;;28.40;99.90;;;;;;5037431;28;20013;-67
2023/09/07 10:32:19;;;;;;;0.30;0.30;;;28.40;99.90;;;;;;5034582;28;20420;-68
2023/09/07 10:34:45;;;;;;;0.20;0.20;;;28.40;99.90;;;;;;5034478;28;20040;-76
2023/09/07 10:37:13;;;;;;;0.90;0.30;;;28.40;99.90;;;;;;5034067;28;20029;-67
2023/09/07 10:39:40;;;;;;;3.22;0.98;;;28.50;99.90;;;;;;5034429;28;20040;-68
2023/09/07 10:42:06;;;;;;;0.22;0.22;;;28.50;99.90;;;;;;5033177;28;20452;-68
2023/09/07 10:44:31;;;;;;;0.32;0.25;;;28.60;99.90;;;;;;5035064;28;20055;-68
2023/09/07 10:46:57;;;;;;;0.40;0.40;;;28.70;99.90;;;;;;5034808;28;20026;-67
2023/09/07 10:49:24;;;;;;;0.10;0.10;;;28.70;99.90;;;;;;5034373;28;20100;-75
2023/09/07 10:51:50;;;;;;;0.73;0.73;;;28.70;99.90;;;;;;5034294;28;20025;-67
2023/09/07 10:54:34;;;;;;;0.30;0.30;;;28.80;99.90;;;;;;5034095;28;20025;-68
2023/09/07 10:57:08;;;;;;;0.93;0.68;;;28.90;99.90;;;;;;5028296;28;20033;-68
2023/09/07 10:59:34;;;;;;;0.30;0.20;;;28.90;99.90;;;;;;5024150;28;20029;-68
2023/09/07 11:02:06;;;;;;;0.70;0.60;;;29.00;99.90;;;;;;5029132;28;20036;-68
2023/09/07 11:04:32;;;;;;;0.68;0.45;;;29.00;99.90;;;;;;5034830;28;20152;-68
2023/09/07 11:06:58;;;;;;;2.25;0.50;;;28.90;99.90;;;;;;5033065;28;20108;-68
2023/09/07 11:09:24;;;;;;;1.38;0.60;;;28.80;99.90;;;;;;5031950;28;20440;-68
2023/09/07 11:11:50;;;;;;;0.90;0.57;;;28.80;99.90;;;;;;5030030;28;20075;-68
2023/09/07 11:14:16;;;;;;;0.73;0.50;;;28.90;99.90;;;;;;5030170;28;20025;-68
2023/09/07 11:16:43;;;;;;;0.30;0.30;;;29.00;99.90;;;;;;5032311;28;20061;-68
2023/09/07 11:19:08;;;;;;;0.32;0.32;;;29.10;99.90;;;;;;5034083;28;20022;-68
2023/09/07 11:21:35;;;;;;;1.05;0.73;;;29.10;99.90;;;;;;5034210;28;20095;-68
2023/09/07 11:24:05;;;;;;;0.50;0.30;;;29.10;99.90;;;;;;5031634;28;20040;-68
2023/09/07 11:26:42;;;;;;;1.98;1.23;;;29.20;99.90;;;;;;5037545;28;20053;-67
2023/09/07 11:29:08;;;;;;;0.15;0.15;;;29.30;99.90;;;;;;5031142;28;20025;-68
2023/09/07 11:31:34;;;;;;;0.60;0.43;;;29.20;99.90;;;;;;5038832;28;20029;-68
2023/09/07 11:34:00;;;;;;;0.65;0.65;;;29.20;99.90;;;;;;5033585;28;20411;-69
2023/09/07 11:36:25;;;;;;;0.28;0.13;;;29.30;99.90;;;;;;5037670;28;20033;-67
2023/09/07 11:38:51;;;;;;;0.40;0.35;;;29.30;99.90;;;;;;5038191;28;20025;-67
2023/09/07 11:41:17;;;;;;;0.40;0.40;;;29.30;99.90;;;;;;5037299;28;20028;-73
2023/09/07 11:43:45;;;;;;;0.20;0.20;;;29.30;99.90;;;;;;5038061;28;20034;-74
2023/09/07 11:46:10;;;;;;;0.20;0.20;;;29.30;99.90;;;;;;5036621;28;20025;-68
2023/09/07 11:48:36;;;;;;;1.02;0.63;;;29.40;99.90;;;;;;5040144;28;20037;-68
2023/09/07 11:51:02;;;;;;;0.85;0.63;;;29.40;99.90;;;;;;5039621;28;20037;-68
2023/09/07 11:53:28;;;;;;;0.43;0.43;;;29.40;99.90;;;;;;5039770;28;20061;-68
2023/09/07 11:55:54;;;;;;;0.20;0.20;;;29.50;99.90;;;;;;5040561;28;20026;-68
2023/09/07 11:58:19;;;;;;;0.10;0.10;;;29.40;99.90;;;;;;5037346;28;20021;-67
2023/09/07 12:00:45;;;;;;;0.17;0.17;;;29.40;99.90;;;;;;5036439;28;20024;-68
2023/09/07 12:03:12;;;;;;;0.60;0.60;;;29.40;99.90;;;;;;5036988;28;20102;-68
2023/09/07 12:05:39;;;;;;;0.77;0.40;;;29.30;99.90;;;;;;5036374;28;20025;-68
2023/09/07 12:08:05;;;;;;;0.17;0.17;;;29.30;99.90;;;;;;5047734;28;20033;-68
2023/09/07 12:10:31;;;;;;;0.68;0.43;;;29.30;99.90;;;;;;5016938;28;20022;-68
2023/09/07 12:12:57;;;;;;;0.08;0.08;;;29.30;99.90;;;;;;5035782;28;20032;-71
2023/09/07 12:15:23;;;;;;;1.70;0.50;;;29.30;99.90;;;;;;5037687;28;20030;-68
2023/09/07 12:17:54;;;;;;;0.52;0.52;;;29.40;99.90;;;;;;5037419;28;20049;-68
2023/09/07 12:20:21;;;;;;;0.70;0.40;;;29.40;99.90;;;;;;5037701;28;20026;-68
2023/09/07 12:22:46;;;;;;;0.57;0.57;;;29.50;99.90;;;;;;5031859;28;20065;-68
2023/09/07 12:25:13;;;;;;;0.22;0.22;;;29.60;99.90;;;;;;5034816;28;20131;-67
2023/09/07 12:27:38;;;;;;;0.88;0.68;;;29.60;99.90;;;;;;5047827;28;20143;-69
2023/09/07 12:30:08;;;;;;;0.88;0.50;;;29.60;99.90;;;;;;5040785;28;20100;-68
2023/09/07 12:32:34;;;;;;;0.30;0.30;;;29.70;99.90;;;;;;5043466;28;20037;-68
2023/09/07 12:34:59;;;;;;;2.65;0.50;;;29.70;99.90;;;;;;5036504;28;20025;-69
2023/09/07 12:37:25;;;;;;;0.25;0.20;;;29.70;99.90;;;;;;5035118;28;20456;-68
2023/09/07 12:39:51;;;;;;;0.75;0.60;;;29.70;99.90;;;;;;5036151;28;20029;-68
2023/09/07 12:42:17;;;;;;;0.30;0.30;;;29.80;99.90;;;;;;5035280;28;20320;-68
2023/09/07 12:44:44;;;;;;;0.45;0.45;;;29.80;99.90;;;;;;5036631;28;20420;-68
2023/09/07 12:47:09;;;;;;;;;;;29.80;99.90;;;;;;5037485;28;20468;-68